createdAt,value
2022-11-20T00:01:11.036Z,53.74
2022-11-20T00:03:38.339Z,53.15
2022-11-20T00:06:08.153Z,53.66
2022-11-20T00:08:35.386Z,53.43
2022-11-20T00:11:17.181Z,53.58
2022-11-20T00:13:45.620Z,53.91
2022-11-20T00:16:14.481Z,53.56
2022-11-20T00:18:43.252Z,54.59
2022-11-20T00:21:15.987Z,53.45
2022-11-20T00:23:43.611Z,53.17
2022-11-20T00:26:13.731Z,52.08
2022-11-20T00:28:41.003Z,55.57
2022-11-20T00:31:15.739Z,54.50
2022-11-20T00:33:43.819Z,53.97
2022-11-20T00:36:13.961Z,53.62
2022-11-20T00:38:41.044Z,53.91
2022-11-20T00:41:10.309Z,55.66
2022-11-20T00:43:38.078Z,55.82
2022-11-20T00:46:07.403Z,55.68
2022-11-20T00:48:34.772Z,56.59
2022-11-20T00:51:02.067Z,55.75
2022-11-20T00:53:29.425Z,55.07
2022-11-20T00:56:01.593Z,55.07
2022-11-20T00:58:34.035Z,55.36
2022-11-20T01:01:07.097Z,55.46
2022-11-20T01:03:44.774Z,55.03
2022-11-20T01:06:13.211Z,54.37
2022-11-20T01:08:41.033Z,54.55
2022-11-20T01:11:10.937Z,55.61
2022-11-20T01:13:38.563Z,54.75
2022-11-20T01:16:13.020Z,55.39
2022-11-20T01:18:42.732Z,54.86
2022-11-20T01:21:24.704Z,55.59
2022-11-20T01:23:52.707Z,56.09
2022-11-20T01:26:22.493Z,55.84
2022-11-20T01:28:49.906Z,56.03
2022-11-20T01:31:22.390Z,55.74
2022-11-20T01:33:52.586Z,55.40
2022-11-20T01:36:20.147Z,55.79
2022-11-20T01:38:47.735Z,55.41
2022-11-20T01:41:36.003Z,55.77
2022-11-20T01:44:04.414Z,55.90
2022-11-20T01:46:33.511Z,55.08
2022-11-20T01:49:17.754Z,55.75
2022-11-20T01:51:47.887Z,56.32
2022-11-20T01:54:22.312Z,56.21
2022-11-20T01:56:51.822Z,56.25
2022-11-20T01:59:20.040Z,55.64
2022-11-20T02:01:47.923Z,55.47
2022-11-20T02:04:15.881Z,55.25
2022-11-20T02:06:52.219Z,55.72
2022-11-20T02:09:19.785Z,55.98
2022-11-20T02:11:47.416Z,56.55
2022-11-20T02:14:15.514Z,55.93
2022-11-20T02:16:46.462Z,56.03
2022-11-20T02:19:28.945Z,55.56
2022-11-20T02:22:13.323Z,55.63
2022-11-20T02:24:40.933Z,55.89
2022-11-20T02:27:13.110Z,55.55
2022-11-20T02:29:45.045Z,55.76
2022-11-20T02:32:23.510Z,55.63
2022-11-20T02:34:50.708Z,55.04
2022-11-20T02:37:17.917Z,55.54
2022-11-20T02:39:46.299Z,54.51
2022-11-20T02:42:13.464Z,55.56
2022-11-20T02:44:40.649Z,55.69
2022-11-20T02:47:08.061Z,56.16
2022-11-20T02:49:35.487Z,55.56
2022-11-20T02:52:02.717Z,55.46
2022-11-20T02:54:29.997Z,55.88
2022-11-20T02:56:57.414Z,55.09
2022-11-20T02:59:24.625Z,55.21
2022-11-20T03:01:51.817Z,55.93
2022-11-20T03:04:19.067Z,55.44
2022-11-20T03:06:46.252Z,55.57
2022-11-20T03:09:13.735Z,54.85
2022-11-20T03:11:40.958Z,54.75
2022-11-20T03:14:08.131Z,56.88
2022-11-20T03:16:35.317Z,55.96
2022-11-20T03:19:02.598Z,56.48
2022-11-20T03:21:29.794Z,55.53
2022-11-20T03:23:57.083Z,57.21
2022-11-20T03:26:26.539Z,55.42
2022-11-20T03:28:59.130Z,55.65
2022-11-20T03:31:29.109Z,55.39
2022-11-20T03:33:57.668Z,56.10
2022-11-20T03:36:25.083Z,56.18
2022-11-20T03:38:54.396Z,55.39
2022-11-20T03:41:27.595Z,55.44
2022-11-20T03:44:01.620Z,55.70
2022-11-20T03:46:29.524Z,56.08
2022-11-20T03:48:57.202Z,55.85
2022-11-20T03:51:32.526Z,56.36
2022-11-20T03:54:08.413Z,55.81
2022-11-20T03:56:37.994Z,55.77
2022-11-20T03:59:06.081Z,55.40
2022-11-20T04:01:36.351Z,56.43
2022-11-20T04:04:03.692Z,55.87
2022-11-20T04:06:34.685Z,56.43
2022-11-20T04:09:01.969Z,55.82
2022-11-20T04:11:31.173Z,55.44
2022-11-20T04:14:00.352Z,55.87
2022-11-20T04:16:30.190Z,56.51
2022-11-20T04:18:59.182Z,55.35
2022-11-20T04:21:27.035Z,55.76
2022-11-20T04:23:55.036Z,54.91
2022-11-20T04:26:23.819Z,55.59
2022-11-20T04:28:51.362Z,55.60
2022-11-20T04:31:26.638Z,54.71
2022-11-20T04:33:54.102Z,55.32
2022-11-20T04:36:25.182Z,54.65
2022-11-20T04:38:57.043Z,55.52
2022-11-20T04:41:29.337Z,55.59
2022-11-20T04:44:00.777Z,55.24
2022-11-20T04:46:28.829Z,55.09
2022-11-20T04:48:56.779Z,55.94
2022-11-20T04:51:24.288Z,54.39
2022-11-20T04:53:51.588Z,55.12
2022-11-20T04:56:18.936Z,55.41
2022-11-20T04:58:46.264Z,54.97
2022-11-20T05:01:18.418Z,55.67
2022-11-20T05:03:46.372Z,54.98
2022-11-20T05:06:15.727Z,56.61
2022-11-20T05:08:43.092Z,56.25
2022-11-20T05:11:15.349Z,55.53
2022-11-20T05:13:42.938Z,55.36
2022-11-20T05:16:15.502Z,55.62
2022-11-20T05:18:42.984Z,54.69
2022-11-20T05:21:11.032Z,54.77
2022-11-20T05:23:38.872Z,55.07
2022-11-20T05:26:07.313Z,55.43
2022-11-20T05:28:34.820Z,54.55
2022-11-20T05:31:09.807Z,54.29
2022-11-20T05:33:37.516Z,54.43
2022-11-20T05:36:05.333Z,54.67
2022-11-20T05:38:32.784Z,55.00
2022-11-20T05:41:10.074Z,54.45
2022-11-20T05:43:38.759Z,54.54
2022-11-20T05:46:07.146Z,55.14
2022-11-20T05:48:35.223Z,54.31
2022-11-20T05:51:04.619Z,55.23
2022-11-20T05:53:33.195Z,55.31
2022-11-20T05:56:07.779Z,54.57
2022-11-20T05:58:35.399Z,54.92
2022-11-20T06:01:18.236Z,54.64
2022-11-20T06:03:48.913Z,54.88
2022-11-20T06:06:16.816Z,54.94
2022-11-20T06:08:44.925Z,54.57
2022-11-20T06:11:13.903Z,54.65
2022-11-20T06:13:42.484Z,54.66
2022-11-20T06:16:11.351Z,55.17
2022-11-20T06:18:38.996Z,54.97
2022-11-20T06:21:13.272Z,55.35
2022-11-20T06:23:41.095Z,55.04
2022-11-20T06:26:13.125Z,55.09
2022-11-20T06:28:40.606Z,55.46
2022-11-20T06:31:08.523Z,55.00
2022-11-20T06:33:35.810Z,55.45
2022-11-20T06:36:07.416Z,55.02
2022-11-20T06:38:37.992Z,54.70
2022-11-20T06:41:06.590Z,54.71
2022-11-20T06:43:33.759Z,54.66
2022-11-20T06:46:00.947Z,54.58
2022-11-20T06:48:29.503Z,55.04
2022-11-20T06:50:57.376Z,54.46
2022-11-20T06:53:25.108Z,54.34
2022-11-20T06:55:52.859Z,54.27
2022-11-20T06:58:20.244Z,54.66
2022-11-20T07:00:47.525Z,54.62
2022-11-20T07:03:14.874Z,54.45
2022-11-20T07:05:43.027Z,54.22
2022-11-20T07:08:10.710Z,54.63
2022-11-20T07:10:38.071Z,54.36
2022-11-20T07:13:05.220Z,54.34
2022-11-20T07:15:32.459Z,53.98
2022-11-20T07:18:00.955Z,54.25
2022-11-20T07:20:28.774Z,53.56
2022-11-20T07:22:56.999Z,54.02
2022-11-20T07:25:25.638Z,54.39
2022-11-20T07:27:52.838Z,53.63
2022-11-20T07:30:20.170Z,54.12
2022-11-20T07:32:48.529Z,54.01
2022-11-20T07:35:15.808Z,54.07
2022-11-20T07:37:43.067Z,53.54
2022-11-20T07:40:10.867Z,54.92
2022-11-20T07:42:38.019Z,53.87
2022-11-20T07:45:05.626Z,53.61
2022-11-20T07:47:37.391Z,53.80
2022-11-20T07:50:05.089Z,53.54
2022-11-20T07:52:32.345Z,52.92
2022-11-20T07:54:59.517Z,53.94
2022-11-20T07:57:28.432Z,53.43
2022-11-20T07:59:55.852Z,53.98
2022-11-20T08:02:23.099Z,53.45
2022-11-20T08:04:50.296Z,53.32
2022-11-20T08:07:17.625Z,53.72
2022-11-20T08:09:44.955Z,53.51
2022-11-20T08:12:40.976Z,53.12
2022-11-20T08:15:13.074Z,53.62
2022-11-20T08:17:40.780Z,54.01
2022-11-20T08:20:08.335Z,54.07
2022-11-20T08:22:35.897Z,53.62
2022-11-20T08:25:03.242Z,53.40
2022-11-20T08:27:32.679Z,53.52
2022-11-20T08:29:59.884Z,53.41
2022-11-20T08:32:27.071Z,53.20
2022-11-20T08:34:54.254Z,53.08
2022-11-20T08:37:21.524Z,53.47
2022-11-20T08:39:48.780Z,53.62
2022-11-20T08:42:15.959Z,53.16
2022-11-20T08:44:44.124Z,53.71
2022-11-20T08:47:11.337Z,54.08
2022-11-20T08:49:38.563Z,53.84
2022-11-20T08:52:06.533Z,53.74
2022-11-20T08:54:33.747Z,54.40
2022-11-20T08:57:00.916Z,54.87
2022-11-20T08:59:50.858Z,55.33
2022-11-20T09:02:16.344Z,55.31
2022-11-20T09:04:43.551Z,56.06
2022-11-20T09:07:11.054Z,56.35
2022-11-20T09:09:38.327Z,57.29
2022-11-20T09:12:05.626Z,56.32
2022-11-20T09:14:32.857Z,54.28
2022-11-20T09:17:00.515Z,58.24
2022-11-20T09:19:35.582Z,57.73
2022-11-20T09:22:03.830Z,57.64
2022-11-20T09:24:31.053Z,57.36
2022-11-20T09:26:58.326Z,56.45
2022-11-20T09:29:25.600Z,57.04
2022-11-20T09:31:52.773Z,57.76
2022-11-20T09:34:20.109Z,57.74
2022-11-20T09:36:47.324Z,56.87
2022-11-20T09:39:14.597Z,56.87
2022-11-20T09:42:03.694Z,57.50
2022-11-20T09:44:52.308Z,57.63
2022-11-20T09:48:00.419Z,57.80
2022-11-20T09:50:38.330Z,58.68
2022-11-20T09:53:17.438Z,58.63
2022-11-20T09:55:46.814Z,57.58
2022-11-20T09:58:21.783Z,57.35
2022-11-20T10:00:49.400Z,57.66
2022-11-20T10:03:37.157Z,58.48
2022-11-20T10:06:06.316Z,58.04
2022-11-20T10:08:42.678Z,58.17
2022-11-20T10:11:21.883Z,60.72
2022-11-20T10:14:13.960Z,60.42
2022-11-20T10:16:59.996Z,59.62
2022-11-20T10:19:43.810Z,60.18
2022-11-20T10:22:11.005Z,59.24
2022-11-20T10:24:45.867Z,59.01
2022-11-20T10:27:43.843Z,59.85
2022-11-20T10:30:12.287Z,59.39
2022-11-20T10:32:42.170Z,59.20
2022-11-20T10:35:38.276Z,59.42
2022-11-20T10:38:15.889Z,58.88
2022-11-20T10:40:45.935Z,58.76
2022-11-20T10:43:13.322Z,59.41
2022-11-20T10:46:00.200Z,58.75
2022-11-20T10:48:28.541Z,59.25
2022-11-20T10:51:38.935Z,59.21
2022-11-20T10:54:06.098Z,58.93
2022-11-20T10:56:46.841Z,59.44
2022-11-20T10:59:50.368Z,60.05
2022-11-20T11:02:20.003Z,59.77
2022-11-20T11:04:48.971Z,59.91
2022-11-20T11:07:18.548Z,59.97
2022-11-20T11:09:55.023Z,59.69
2022-11-20T11:12:24.643Z,60.16
2022-11-20T11:14:53.589Z,60.34
2022-11-20T11:17:28.271Z,59.74
2022-11-20T11:20:21.418Z,60.22
2022-11-20T11:22:57.171Z,59.83
2022-11-20T11:25:29.542Z,59.81
2022-11-20T11:28:00.936Z,59.97
2022-11-20T11:30:31.170Z,59.98
2022-11-20T11:33:05.619Z,59.63
2022-11-20T11:35:32.941Z,59.68
2022-11-20T11:38:12.134Z,60.19
2022-11-20T11:40:40.817Z,59.58
2022-11-20T11:43:38.087Z,59.50
2022-11-20T11:46:30.753Z,59.44
2022-11-20T11:48:58.508Z,59.06
2022-11-20T11:52:00.079Z,59.18
2022-11-20T11:54:56.779Z,59.20
2022-11-20T11:57:24.948Z,60.10
2022-11-20T12:00:11.928Z,59.78
2022-11-20T12:02:51.414Z,59.12
2022-11-20T12:05:28.291Z,59.15
2022-11-20T12:08:16.969Z,60.05
2022-11-20T12:11:06.898Z,59.61
2022-11-20T12:13:50.047Z,59.91
2022-11-20T12:16:20.624Z,59.68
2022-11-20T12:18:52.717Z,59.42
2022-11-20T12:21:38.337Z,58.61
2022-11-20T12:24:23.709Z,59.26
2022-11-20T12:27:11.236Z,58.77
2022-11-20T12:30:10.607Z,58.18
2022-11-20T12:32:50.146Z,58.79
2022-11-20T12:35:38.724Z,59.05
2022-11-20T12:38:37.326Z,59.42
2022-11-20T12:42:12.579Z,59.72
2022-11-20T12:45:12.488Z,60.33
2022-11-20T12:47:51.312Z,61.37
2022-11-20T12:50:24.163Z,61.83
2022-11-20T12:52:56.841Z,64.41
2022-11-20T12:56:08.037Z,63.30
2022-11-20T12:58:41.152Z,63.23
2022-11-20T13:01:43.492Z,62.63
2022-11-20T13:04:32.433Z,63.42
2022-11-20T13:07:00.128Z,64.85
2022-11-20T13:09:27.786Z,64.85
2022-11-20T13:12:07.947Z,63.93
2022-11-20T13:14:35.152Z,63.71
2022-11-20T13:17:36.440Z,63.73
2022-11-20T13:20:07.512Z,63.46
2022-11-20T13:22:55.784Z,63.04
2022-11-20T13:25:30.088Z,63.80
2022-11-20T13:27:59.564Z,64.27
2022-11-20T13:30:31.324Z,64.94
2022-11-20T13:33:05.710Z,64.17
2022-11-20T13:35:38.217Z,64.23
2022-11-20T13:38:15.098Z,63.12
2022-11-20T13:41:24.221Z,65.17
2022-11-20T13:43:53.245Z,66.50
2022-11-20T13:46:25.415Z,66.94
2022-11-20T13:48:54.572Z,68.35
2022-11-20T13:51:37.038Z,66.79
2022-11-20T13:54:07.279Z,64.65
2022-11-20T13:56:53.263Z,63.77
2022-11-20T13:59:20.426Z,64.20
2022-11-20T14:01:47.776Z,64.93
2022-11-20T14:04:40.869Z,64.17
2022-11-20T14:07:08.611Z,65.15
2022-11-20T14:09:36.058Z,66.74
2022-11-20T14:12:04.492Z,64.91
2022-11-20T14:14:34.152Z,64.20
2022-11-20T14:17:31.835Z,63.20
2022-11-20T14:20:08.039Z,62.66
2022-11-20T14:22:35.262Z,62.95
2022-11-20T14:25:19.101Z,63.15
2022-11-20T14:27:53.245Z,62.37
2022-11-20T14:30:25.581Z,62.41
2022-11-20T14:32:55.743Z,61.81
2022-11-20T14:35:27.098Z,63.68
2022-11-20T14:37:56.122Z,66.30
2022-11-20T14:40:36.573Z,65.04
2022-11-20T14:43:19.161Z,63.81
2022-11-20T14:45:59.610Z,63.74
2022-11-20T14:48:38.408Z,63.07
2022-11-20T14:51:05.826Z,61.68
2022-11-20T14:53:33.034Z,62.65
2022-11-20T14:56:03.277Z,66.50
2022-11-20T14:58:32.936Z,68.17
2022-11-20T15:01:04.793Z,67.95
2022-11-20T15:03:37.288Z,66.99
2022-11-20T15:06:06.723Z,65.58
2022-11-20T15:08:35.490Z,65.46
2022-11-20T15:11:03.167Z,67.65
2022-11-20T15:13:33.112Z,65.25
2022-11-20T15:16:02.118Z,65.99
2022-11-20T15:18:32.480Z,65.38
2022-11-20T15:21:03.462Z,65.89
2022-11-20T15:23:30.852Z,68.10
2022-11-20T15:25:58.773Z,69.03
2022-11-20T15:28:35.102Z,69.11
2022-11-20T15:31:03.979Z,69.93
2022-11-20T15:33:32.140Z,71.50
2022-11-20T15:36:00.111Z,69.79
2022-11-20T15:38:27.283Z,68.12
2022-11-20T15:40:54.509Z,67.90
2022-11-20T15:43:21.675Z,67.53
2022-11-20T15:45:51.648Z,68.68
2022-11-20T15:48:21.568Z,68.75
2022-11-20T15:50:59.511Z,70.22
2022-11-20T15:53:26.957Z,66.74
2022-11-20T15:55:54.649Z,66.47
2022-11-20T15:58:23.822Z,65.20
2022-11-20T16:00:51.586Z,66.88
2022-11-20T16:03:18.835Z,66.19
2022-11-20T16:05:46.319Z,62.89
2022-11-20T16:08:14.132Z,66.74
2022-11-20T16:10:41.910Z,63.64
2022-11-20T16:13:36.999Z,62.65
2022-11-20T16:16:11.766Z,65.06
2022-11-20T16:18:39.147Z,62.90
2022-11-20T16:21:13.156Z,62.53
2022-11-20T16:23:41.005Z,57.92
2022-11-20T16:26:17.812Z,59.81
2022-11-20T16:28:45.313Z,62.21
2022-11-20T16:31:18.180Z,62.56
2022-11-20T16:33:56.426Z,59.36
2022-11-20T16:36:25.461Z,64.60
2022-11-20T16:38:54.140Z,63.16
2022-11-20T16:41:21.770Z,63.70
2022-11-20T16:43:59.469Z,60.34
2022-11-20T16:46:32.283Z,63.45
2022-11-20T16:49:05.064Z,60.98
2022-11-20T16:51:35.301Z,64.16
2022-11-20T16:54:03.383Z,63.80
2022-11-20T16:56:30.534Z,65.36
2022-11-20T16:58:59.051Z,62.05
2022-11-20T17:01:28.563Z,63.37
2022-11-20T17:04:01.253Z,66.21
2022-11-20T17:06:31.665Z,64.53
2022-11-20T17:08:59.456Z,64.16
2022-11-20T17:11:27.741Z,62.33
2022-11-20T17:13:56.224Z,62.77
2022-11-20T17:16:24.764Z,60.98
2022-11-20T17:18:59.718Z,61.32
2022-11-20T17:21:30.727Z,61.75
2022-11-20T17:24:02.029Z,61.59
2022-11-20T17:26:29.405Z,61.26
2022-11-20T17:29:01.732Z,60.67
2022-11-20T17:31:30.119Z,60.47
2022-11-20T17:33:59.702Z,61.22
2022-11-20T17:36:27.589Z,60.83
2022-11-20T17:38:55.042Z,61.48
2022-11-20T17:41:26.345Z,59.49
2022-11-20T17:43:58.348Z,61.89
2022-11-20T17:46:28.028Z,61.23
2022-11-20T17:48:55.917Z,59.99
2022-11-20T17:51:25.601Z,60.34
2022-11-20T17:53:55.358Z,60.32
2022-11-20T17:56:42.219Z,60.40
2022-11-20T17:59:12.500Z,59.97
2022-11-20T18:01:40.527Z,60.13
2022-11-20T18:04:07.707Z,60.26
2022-11-20T18:06:34.998Z,59.31
2022-11-20T18:09:04.537Z,60.56
2022-11-20T18:11:34.553Z,60.13
2022-11-20T18:14:24.315Z,60.26
2022-11-20T18:17:12.717Z,60.69
2022-11-20T18:20:00.693Z,59.86
2022-11-20T18:22:30.917Z,60.75
2022-11-20T18:24:58.158Z,60.47
2022-11-20T18:27:25.497Z,60.25
2022-11-20T18:29:52.942Z,58.97
2022-11-20T18:32:21.797Z,58.79
2022-11-20T18:34:49.040Z,60.56
2022-11-20T18:37:16.655Z,59.63
2022-11-20T18:39:44.125Z,59.80
2022-11-20T18:42:34.959Z,58.70
2022-11-20T18:45:04.290Z,61.54
2022-11-20T18:47:35.631Z,63.31
2022-11-20T18:50:03.843Z,61.20
2022-11-20T18:52:38.676Z,60.99
2022-11-20T18:55:06.566Z,59.95
2022-11-20T18:57:34.063Z,59.77
2022-11-20T19:00:07.843Z,59.78
2022-11-20T19:02:41.001Z,58.90
2022-11-20T19:05:11.168Z,60.85
2022-11-20T19:07:38.451Z,58.64
2022-11-20T19:10:06.564Z,62.02
2022-11-20T19:12:33.783Z,62.70
2022-11-20T19:15:01.110Z,62.96
2022-11-20T19:17:29.574Z,60.60
2022-11-20T19:19:56.752Z,62.29
2022-11-20T19:22:24.171Z,62.73
2022-11-20T19:24:51.718Z,60.77
2022-11-20T19:27:19.063Z,61.05
2022-11-20T19:29:46.244Z,60.09
2022-11-20T19:32:13.463Z,59.81
2022-11-20T19:34:41.522Z,61.35
2022-11-20T19:37:09.877Z,60.71
2022-11-20T19:39:37.419Z,58.69
2022-11-20T19:42:04.737Z,61.67
2022-11-20T19:44:33.028Z,60.98
2022-11-20T19:47:00.857Z,60.14
2022-11-20T19:49:28.097Z,62.66
2022-11-20T19:51:56.356Z,62.19
2022-11-20T19:54:23.873Z,59.06
2022-11-20T19:56:51.205Z,61.25
2022-11-20T19:59:18.581Z,61.88
2022-11-20T20:01:46.304Z,62.15
2022-11-20T20:04:13.953Z,62.18
2022-11-20T20:06:41.704Z,60.91
2022-11-20T20:09:11.885Z,62.01
2022-11-20T20:11:39.419Z,61.84
2022-11-20T20:14:10.825Z,61.86
2022-11-20T20:16:38.020Z,61.99
2022-11-20T20:19:05.919Z,64.13
2022-11-20T20:21:35.362Z,63.28
2022-11-20T20:24:03.133Z,63.03
2022-11-20T20:26:31.664Z,62.75
2022-11-20T20:28:59.717Z,61.86
2022-11-20T20:31:28.610Z,61.08
2022-11-20T20:33:55.975Z,63.20
2022-11-20T20:36:24.078Z,61.05
2022-11-20T20:38:55.523Z,60.28
2022-11-20T20:41:24.708Z,62.37
2022-11-20T20:44:10.967Z,61.79
2022-11-20T20:46:38.814Z,60.90
2022-11-20T20:49:07.306Z,63.72
2022-11-20T20:51:34.627Z,62.77
2022-11-20T20:54:03.547Z,62.19
2022-11-20T20:56:30.734Z,61.80
2022-11-20T20:58:57.970Z,61.66
2022-11-20T21:01:28.507Z,65.30
2022-11-20T21:03:56.684Z,65.66
2022-11-20T21:06:24.274Z,68.23
2022-11-20T21:08:51.704Z,66.36
2022-11-20T21:11:20.497Z,63.92
2022-11-20T21:13:48.927Z,65.81
2022-11-20T21:16:17.571Z,63.80
2022-11-20T21:18:44.965Z,67.10
2022-11-20T21:21:32.449Z,69.83
2022-11-20T21:23:59.952Z,70.44
2022-11-20T21:26:27.166Z,70.67
2022-11-20T21:28:54.624Z,69.01
2022-11-20T21:31:24.802Z,72.71
2022-11-20T21:33:52.489Z,70.30
2022-11-20T21:36:21.981Z,72.13
2022-11-20T21:38:51.201Z,70.13
2022-11-20T21:41:18.450Z,71.13
2022-11-20T21:43:48.938Z,68.15
2022-11-20T21:46:22.316Z,64.71
2022-11-20T21:48:49.721Z,64.41
2022-11-20T21:51:19.056Z,65.80
2022-11-20T21:53:47.920Z,74.17
2022-11-20T21:56:20.280Z,70.05
2022-11-20T21:58:48.687Z,73.46
2022-11-20T22:01:17.272Z,69.95
2022-11-20T22:03:49.490Z,71.70
2022-11-20T22:06:17.472Z,74.63
2022-11-20T22:08:44.958Z,69.42
2022-11-20T22:11:14.271Z,68.79
2022-11-20T22:14:00.596Z,70.26
2022-11-20T22:16:27.845Z,71.27
2022-11-20T22:18:56.554Z,69.97
2022-11-20T22:21:25.808Z,75.55
2022-11-20T22:23:53.191Z,74.44
2022-11-20T22:26:22.741Z,76.45
2022-11-20T22:28:52.074Z,71.84
2022-11-20T22:31:20.494Z,70.54
2022-11-20T22:33:48.162Z,73.04
2022-11-20T22:36:17.823Z,69.09
2022-11-20T22:38:45.150Z,67.10
2022-11-20T22:41:16.324Z,71.14
2022-11-20T22:43:44.199Z,68.74
2022-11-20T22:46:18.898Z,68.20
2022-11-20T22:48:51.519Z,67.63
2022-11-20T22:51:21.174Z,69.44
2022-11-20T22:53:48.976Z,67.51
2022-11-20T22:56:16.903Z,66.67
2022-11-20T22:58:46.256Z,65.96
2022-11-20T23:01:19.884Z,65.99
2022-11-20T23:03:49.437Z,65.32
2022-11-20T23:06:18.431Z,65.59
2022-11-20T23:08:46.108Z,65.41
2022-11-20T23:11:15.803Z,64.23
2022-11-20T23:13:43.794Z,65.70
2022-11-20T23:16:13.669Z,65.80
2022-11-20T23:18:41.579Z,65.67
2022-11-20T23:21:17.027Z,65.25
2022-11-20T23:23:48.463Z,65.16
2022-11-20T23:26:16.879Z,65.76
2022-11-20T23:28:44.645Z,66.42
2022-11-20T23:31:13.226Z,65.95
2022-11-20T23:33:42.221Z,64.93
2022-11-20T23:36:10.643Z,64.61
2022-11-20T23:38:38.175Z,65.45
2022-11-20T23:41:05.561Z,66.11
2022-11-20T23:43:32.994Z,66.28
2022-11-20T23:46:01.352Z,66.71
2022-11-20T23:48:31.394Z,66.36
2022-11-20T23:50:59.078Z,66.24
2022-11-20T23:53:27.022Z,66.10
2022-11-20T23:55:58.955Z,66.40
2022-11-20T23:58:30.888Z,65.91
